sensor_id;sensor_type;location;lat;lon;timestamp;temperature;humidity
13598;DHT22;38563;54.258;12.574;2023-12-20T00:00:22;5.50;99.90
13598;DHT22;38563;54.258;12.574;2023-12-20T00:02:48;5.50;99.90
13598;DHT22;38563;54.258;12.574;2023-12-20T00:05:15;5.60;99.90
13598;DHT22;38563;54.258;12.574;2023-12-20T00:07:42;5.60;99.90
13598;DHT22;38563;54.258;12.574;2023-12-20T00:10:09;5.60;99.90
13598;DHT22;38563;54.258;12.574;2023-12-20T00:12:39;5.60;99.90
13598;DHT22;38563;54.258;12.574;2023-12-20T00:15:07;5.50;99.90
13598;DHT22;38563;54.258;12.574;2023-12-20T00:17:34;5.50;99.90
13598;DHT22;38563;54.258;12.574;2023-12-20T00:20:01;5.40;99.90
13598;DHT22;38563;54.258;12.574;2023-12-20T00:22:27;5.30;99.90
13598;DHT22;38563;54.258;12.574;2023-12-20T00:24:54;5.20;99.90
13598;DHT22;38563;54.258;12.574;2023-12-20T00:27:21;5.20;99.90
13598;DHT22;38563;54.258;12.574;2023-12-20T00:29:50;5.10;99.90
13598;DHT22;38563;54.258;12.574;2023-12-20T00:32:16;5.00;99.90
13598;DHT22;38563;54.258;12.574;2023-12-20T00:34:43;4.90;99.90
13598;DHT22;38563;54.258;12.574;2023-12-20T00:37:10;4.80;99.90
13598;DHT22;38563;54.258;12.574;2023-12-20T00:39:37;4.70;99.90
13598;DHT22;38563;54.258;12.574;2023-12-20T00:42:04;4.70;99.90
13598;DHT22;38563;54.258;12.574;2023-12-20T00:44:31;4.60;99.90
13598;DHT22;38563;54.258;12.574;2023-12-20T00:46:59;4.60;99.90
13598;DHT22;38563;54.258;12.574;2023-12-20T00:49:26;4.50;99.90
13598;DHT22;38563;54.258;12.574;2023-12-20T00:51:53;4.50;99.90
13598;DHT22;38563;54.258;12.574;2023-12-20T00:54:20;4.50;99.90
13598;DHT22;38563;54.258;12.574;2023-12-20T00:56:46;4.40;99.90
13598;DHT22;38563;54.258;12.574;2023-12-20T00:59:13;4.40;99.90
13598;DHT22;38563;54.258;12.574;2023-12-20T01:01:40;4.40;99.90
13598;DHT22;38563;54.258;12.574;2023-12-20T01:04:08;4.30;99.90
13598;DHT22;38563;54.258;12.574;2023-12-20T01:06:35;4.50;99.90
13598;DHT22;38563;54.258;12.574;2023-12-20T01:09:02;4.50;99.90
13598;DHT22;38563;54.258;12.574;2023-12-20T01:11:29;4.60;99.90
13598;DHT22;38563;54.258;12.574;2023-12-20T01:13:56;4.70;99.90
13598;DHT22;38563;54.258;12.574;2023-12-20T01:16:22;4.70;99.90
13598;DHT22;38563;54.258;12.574;2023-12-20T01:18:49;4.80;99.90
13598;DHT22;38563;54.258;12.574;2023-12-20T01:21:17;4.80;99.90
13598;DHT22;38563;54.258;12.574;2023-12-20T01:23:44;4.80;99.90
13598;DHT22;38563;54.258;12.574;2023-12-20T01:26:10;4.80;99.90
13598;DHT22;38563;54.258;12.574;2023-12-20T01:28:37;4.80;99.90
13598;DHT22;38563;54.258;12.574;2023-12-20T01:31:04;4.80;99.90
13598;DHT22;38563;54.258;12.574;2023-12-20T01:33:31;4.90;99.90
13598;DHT22;38563;54.258;12.574;2023-12-20T01:35:58;4.90;99.90
13598;DHT22;38563;54.258;12.574;2023-12-20T01:38:26;4.90;99.90
13598;DHT22;38563;54.258;12.574;2023-12-20T01:40:52;4.90;99.90
13598;DHT22;38563;54.258;12.574;2023-12-20T01:43:19;4.90;99.90
13598;DHT22;38563;54.258;12.574;2023-12-20T01:45:46;4.90;99.90
13598;DHT22;38563;54.258;12.574;2023-12-20T01:48:14;4.90;99.90
13598;DHT22;38563;54.258;12.574;2023-12-20T01:50:43;4.90;99.90
13598;DHT22;38563;54.258;12.574;2023-12-20T01:53:12;4.90;99.90
13598;DHT22;38563;54.258;12.574;2023-12-20T01:55:41;4.90;99.90
13598;DHT22;38563;54.258;12.574;2023-12-20T01:58:08;4.90;99.90
13598;DHT22;38563;54.258;12.574;2023-12-20T02:00:36;4.90;99.90
13598;DHT22;38563;54.258;12.574;2023-12-20T02:03:04;4.90;99.90
13598;DHT22;38563;54.258;12.574;2023-12-20T02:05:31;4.90;99.90
13598;DHT22;38563;54.258;12.574;2023-12-20T02:07:58;4.90;99.90
13598;DHT22;38563;54.258;12.574;2023-12-20T02:10:25;4.90;99.90
13598;DHT22;38563;54.258;12.574;2023-12-20T02:12:53;4.90;99.90
13598;DHT22;38563;54.258;12.574;2023-12-20T02:15:20;4.90;99.90
13598;DHT22;38563;54.258;12.574;2023-12-20T02:17:47;4.90;99.90
13598;DHT22;38563;54.258;12.574;2023-12-20T02:20:14;4.90;99.90
13598;DHT22;38563;54.258;12.574;2023-12-20T02:22:43;4.90;99.90
13598;DHT22;38563;54.258;12.574;2023-12-20T02:25:09;4.80;99.90
13598;DHT22;38563;54.258;12.574;2023-12-20T02:27:36;4.90;99.90
13598;DHT22;38563;54.258;12.574;2023-12-20T02:30:04;4.90;99.90
13598;DHT22;38563;54.258;12.574;2023-12-20T02:32:31;4.90;99.90
13598;DHT22;38563;54.258;12.574;2023-12-20T02:34:57;4.90;99.90
13598;DHT22;38563;54.258;12.574;2023-12-20T02:37:24;5.00;99.90
13598;DHT22;38563;54.258;12.574;2023-12-20T02:39:52;5.00;99.90
13598;DHT22;38563;54.258;12.574;2023-12-20T02:42:19;5.10;99.90
13598;DHT22;38563;54.258;12.574;2023-12-20T02:44:46;5.10;99.90
13598;DHT22;38563;54.258;12.574;2023-12-20T02:47:12;5.10;99.90
13598;DHT22;38563;54.258;12.574;2023-12-20T02:49:39;5.00;99.90
13598;DHT22;38563;54.258;12.574;2023-12-20T02:52:06;5.00;99.90
13598;DHT22;38563;54.258;12.574;2023-12-20T02:54:32;5.00;99.90
13598;DHT22;38563;54.258;12.574;2023-12-20T02:57:00;5.10;99.90
13598;DHT22;38563;54.258;12.574;2023-12-20T02:59:27;5.10;99.90
13598;DHT22;38563;54.258;12.574;2023-12-20T03:01:54;5.10;99.90
13598;DHT22;38563;54.258;12.574;2023-12-20T03:04:20;5.20;99.90
13598;DHT22;38563;54.258;12.574;2023-12-20T03:06:47;5.20;99.90
13598;DHT22;38563;54.258;12.574;2023-12-20T03:09:14;5.20;99.90
13598;DHT22;38563;54.258;12.574;2023-12-20T03:11:41;5.20;99.90
13598;DHT22;38563;54.258;12.574;2023-12-20T03:14:09;5.20;99.90
13598;DHT22;38563;54.258;12.574;2023-12-20T03:16:35;5.20;99.90
13598;DHT22;38563;54.258;12.574;2023-12-20T03:19:02;5.20;99.90
13598;DHT22;38563;54.258;12.574;2023-12-20T03:21:29;5.20;99.90
13598;DHT22;38563;54.258;12.574;2023-12-20T03:23:55;5.20;99.90
13598;DHT22;38563;54.258;12.574;2023-12-20T03:26:22;5.30;99.90
13598;DHT22;38563;54.258;12.574;2023-12-20T03:28:49;5.20;99.90
13598;DHT22;38563;54.258;12.574;2023-12-20T03:31:17;5.20;99.90
13598;DHT22;38563;54.258;12.574;2023-12-20T03:33:43;5.20;99.90
13598;DHT22;38563;54.258;12.574;2023-12-20T03:36:10;5.20;99.90
13598;DHT22;38563;54.258;12.574;2023-12-20T03:38:37;5.20;99.90
13598;DHT22;38563;54.258;12.574;2023-12-20T03:41:04;5.20;99.90
13598;DHT22;38563;54.258;12.574;2023-12-20T03:43:31;5.20;99.90
13598;DHT22;38563;54.258;12.574;2023-12-20T03:45:57;5.20;99.90
13598;DHT22;38563;54.258;12.574;2023-12-20T03:48:26;5.20;99.90
13598;DHT22;38563;54.258;12.574;2023-12-20T03:50:53;5.20;99.90
13598;DHT22;38563;54.258;12.574;2023-12-20T03:53:20;5.10;99.90
13598;DHT22;38563;54.258;12.574;2023-12-20T03:55:46;5.10;99.90
13598;DHT22;38563;54.258;12.574;2023-12-20T03:58:13;5.10;99.90
13598;DHT22;38563;54.258;12.574;2023-12-20T04:00:40;5.00;99.90
13598;DHT22;38563;54.258;12.574;2023-12-20T04:03:07;5.00;99.90
13598;DHT22;38563;54.258;12.574;2023-12-20T04:05:35;5.00;99.90
13598;DHT22;38563;54.258;12.574;2023-12-20T04:08:02;5.00;99.90
13598;DHT22;38563;54.258;12.574;2023-12-20T04:10:29;5.00;99.90
13598;DHT22;38563;54.258;12.574;2023-12-20T04:12:56;5.10;99.90
13598;DHT22;38563;54.258;12.574;2023-12-20T04:15:23;5.10;99.90
13598;DHT22;38563;54.258;12.574;2023-12-20T04:17:49;5.20;99.90
13598;DHT22;38563;54.258;12.574;2023-12-20T04:20:16;5.30;99.90
13598;DHT22;38563;54.258;12.574;2023-12-20T04:22:44;5.30;99.90
13598;DHT22;38563;54.258;12.574;2023-12-20T04:25:11;5.30;99.90
13598;DHT22;38563;54.258;12.574;2023-12-20T04:41:09;5.50;99.90
13598;DHT22;38563;54.258;12.574;2023-12-20T04:43:36;5.50;99.90
13598;DHT22;38563;54.258;12.574;2023-12-20T04:46:03;5.50;99.90
13598;DHT22;38563;54.258;12.574;2023-12-20T04:48:29;5.50;99.90
13598;DHT22;38563;54.258;12.574;2023-12-20T04:50:56;5.50;99.90
13598;DHT22;38563;54.258;12.574;2023-12-20T04:53:23;5.50;99.90
13598;DHT22;38563;54.258;12.574;2023-12-20T04:55:49;5.50;99.90
13598;DHT22;38563;54.258;12.574;2023-12-20T04:58:17;5.50;99.90
13598;DHT22;38563;54.258;12.574;2023-12-20T05:00:44;5.40;99.90
13598;DHT22;38563;54.258;12.574;2023-12-20T05:03:11;5.40;99.90
13598;DHT22;38563;54.258;12.574;2023-12-20T05:05:37;5.40;99.90
13598;DHT22;38563;54.258;12.574;2023-12-20T05:08:04;5.40;99.90
13598;DHT22;38563;54.258;12.574;2023-12-20T05:10:31;5.40;99.90
13598;DHT22;38563;54.258;12.574;2023-12-20T05:12:58;5.40;99.90
13598;DHT22;38563;54.258;12.574;2023-12-20T05:15:26;5.40;99.90
13598;DHT22;38563;54.258;12.574;2023-12-20T05:17:52;5.50;99.90
13598;DHT22;38563;54.258;12.574;2023-12-20T05:20:19;5.50;99.90
13598;DHT22;38563;54.258;12.574;2023-12-20T05:22:46;5.50;99.90
13598;DHT22;38563;54.258;12.574;2023-12-20T05:25:13;5.50;99.90
13598;DHT22;38563;54.258;12.574;2023-12-20T05:27:39;5.50;99.90
13598;DHT22;38563;54.258;12.574;2023-12-20T05:30:07;5.60;99.90
13598;DHT22;38563;54.258;12.574;2023-12-20T05:32:37;5.60;99.90
13598;DHT22;38563;54.258;12.574;2023-12-20T05:35:05;5.60;99.90
13598;DHT22;38563;54.258;12.574;2023-12-20T05:37:36;5.60;99.90
13598;DHT22;38563;54.258;12.574;2023-12-20T05:40:03;5.60;99.90
13598;DHT22;38563;54.258;12.574;2023-12-20T05:42:30;5.60;99.90
13598;DHT22;38563;54.258;12.574;2023-12-20T05:44:57;5.50;99.90
13598;DHT22;38563;54.258;12.574;2023-12-20T05:47:23;5.60;99.90
13598;DHT22;38563;54.258;12.574;2023-12-20T05:49:51;5.60;99.90
13598;DHT22;38563;54.258;12.574;2023-12-20T05:52:18;5.60;99.90
13598;DHT22;38563;54.258;12.574;2023-12-20T05:54:45;5.60;99.90
13598;DHT22;38563;54.258;12.574;2023-12-20T05:57:11;5.60;99.90
13598;DHT22;38563;54.258;12.574;2023-12-20T05:59:38;5.60;99.90
13598;DHT22;38563;54.258;12.574;2023-12-20T06:02:05;5.70;99.90
13598;DHT22;38563;54.258;12.574;2023-12-20T06:04:32;5.70;99.90
13598;DHT22;38563;54.258;12.574;2023-12-20T06:07:02;5.70;99.90
13598;DHT22;38563;54.258;12.574;2023-12-20T06:09:29;5.70;99.90
13598;DHT22;38563;54.258;12.574;2023-12-20T06:11:56;5.70;99.90
13598;DHT22;38563;54.258;12.574;2023-12-20T06:14:22;5.70;99.90
13598;DHT22;38563;54.258;12.574;2023-12-20T06:16:49;5.70;99.90
13598;DHT22;38563;54.258;12.574;2023-12-20T06:19:16;5.60;99.90
13598;DHT22;38563;54.258;12.574;2023-12-20T06:21:43;5.50;99.90
13598;DHT22;38563;54.258;12.574;2023-12-20T06:24:11;5.40;99.90
13598;DHT22;38563;54.258;12.574;2023-12-20T06:26:37;5.40;99.90
13598;DHT22;38563;54.258;12.574;2023-12-20T06:29:04;5.30;99.90
13598;DHT22;38563;54.258;12.574;2023-12-20T06:31:31;5.30;99.90
13598;DHT22;38563;54.258;12.574;2023-12-20T06:33:58;5.20;99.90
13598;DHT22;38563;54.258;12.574;2023-12-20T06:36:25;5.10;99.90
13598;DHT22;38563;54.258;12.574;2023-12-20T06:38:52;5.10;99.90
13598;DHT22;38563;54.258;12.574;2023-12-20T06:41:20;5.10;99.90
13598;DHT22;38563;54.258;12.574;2023-12-20T06:43:49;5.00;99.90
13598;DHT22;38563;54.258;12.574;2023-12-20T06:46:16;5.10;99.90
13598;DHT22;38563;54.258;12.574;2023-12-20T06:48:42;5.10;99.90
13598;DHT22;38563;54.258;12.574;2023-12-20T06:51:11;5.10;99.90
13598;DHT22;38563;54.258;12.574;2023-12-20T06:53:38;5.10;99.90
13598;DHT22;38563;54.258;12.574;2023-12-20T06:56:06;5.10;99.90
13598;DHT22;38563;54.258;12.574;2023-12-20T06:58:34;5.10;99.90
13598;DHT22;38563;54.258;12.574;2023-12-20T07:01:02;5.20;99.90
13598;DHT22;38563;54.258;12.574;2023-12-20T07:03:29;5.20;99.90
13598;DHT22;38563;54.258;12.574;2023-12-20T07:05:56;5.20;99.90
13598;DHT22;38563;54.258;12.574;2023-12-20T07:08:23;5.20;99.90
13598;DHT22;38563;54.258;12.574;2023-12-20T07:10:50;5.20;99.90
13598;DHT22;38563;54.258;12.574;2023-12-20T07:13:16;5.20;99.90
13598;DHT22;38563;54.258;12.574;2023-12-20T07:15:44;5.20;99.90
13598;DHT22;38563;54.258;12.574;2023-12-20T07:18:11;5.20;99.90
13598;DHT22;38563;54.258;12.574;2023-12-20T07:20:38;5.20;99.90
13598;DHT22;38563;54.258;12.574;2023-12-20T07:23:04;5.20;99.90
13598;DHT22;38563;54.258;12.574;2023-12-20T07:25:31;5.20;99.90
13598;DHT22;38563;54.258;12.574;2023-12-20T07:27:58;5.20;99.90
13598;DHT22;38563;54.258;12.574;2023-12-20T07:30:25;5.10;99.90
13598;DHT22;38563;54.258;12.574;2023-12-20T09:46:44;5.00;99.90
13598;DHT22;38563;54.258;12.574;2023-12-20T09:49:11;5.30;99.90
13598;DHT22;38563;54.258;12.574;2023-12-20T09:51:38;5.30;99.90
13598;DHT22;38563;54.258;12.574;2023-12-20T09:54:06;5.40;99.90
13598;DHT22;38563;54.258;12.574;2023-12-20T09:56:33;5.50;99.90
13598;DHT22;38563;54.258;12.574;2023-12-20T09:59:00;5.50;99.90
13598;DHT22;38563;54.258;12.574;2023-12-20T10:01:27;5.50;99.90
13598;DHT22;38563;54.258;12.574;2023-12-20T10:03:56;5.60;99.90
13598;DHT22;38563;54.258;12.574;2023-12-20T10:06:24;5.60;99.90
13598;DHT22;38563;54.258;12.574;2023-12-20T10:08:50;5.60;99.90
13598;DHT22;38563;54.258;12.574;2023-12-20T10:11:17;5.60;99.90
13598;DHT22;38563;54.258;12.574;2023-12-20T10:13:47;5.60;99.90
13598;DHT22;38563;54.258;12.574;2023-12-20T10:16:14;5.60;99.90
13598;DHT22;38563;54.258;12.574;2023-12-20T10:18:41;5.50;99.90
13598;DHT22;38563;54.258;12.574;2023-12-20T10:21:09;5.50;99.90
13598;DHT22;38563;54.258;12.574;2023-12-20T10:23:37;5.50;99.90
13598;DHT22;38563;54.258;12.574;2023-12-20T10:26:04;5.50;99.90
13598;DHT22;38563;54.258;12.574;2023-12-20T10:28:33;5.50;99.90
13598;DHT22;38563;54.258;12.574;2023-12-20T10:31:00;5.40;99.90
13598;DHT22;38563;54.258;12.574;2023-12-20T10:33:28;5.40;99.90
13598;DHT22;38563;54.258;12.574;2023-12-20T10:35:56;5.30;99.90
13598;DHT22;38563;54.258;12.574;2023-12-20T10:38:24;5.30;99.90
13598;DHT22;38563;54.258;12.574;2023-12-20T10:40:54;5.20;99.90
13598;DHT22;38563;54.258;12.574;2023-12-20T10:43:23;5.20;99.90
13598;DHT22;38563;54.258;12.574;2023-12-20T10:45:51;5.20;99.90
13598;DHT22;38563;54.258;12.574;2023-12-20T10:48:19;5.10;99.90
13598;DHT22;38563;54.258;12.574;2023-12-20T10:50:55;5.20;99.90
13598;DHT22;38563;54.258;12.574;2023-12-20T10:53:24;5.10;99.90
13598;DHT22;38563;54.258;12.574;2023-12-20T10:55:52;5.10;99.90
13598;DHT22;38563;54.258;12.574;2023-12-20T10:58:20;5.10;99.90
13598;DHT22;38563;54.258;12.574;2023-12-20T11:00:50;5.20;99.90
13598;DHT22;38563;54.258;12.574;2023-12-20T11:03:18;5.20;99.90
13598;DHT22;38563;54.258;12.574;2023-12-20T11:05:50;5.20;99.90
13598;DHT22;38563;54.258;12.574;2023-12-20T11:08:22;5.20;99.90
13598;DHT22;38563;54.258;12.574;2023-12-20T11:10:57;5.20;99.90
13598;DHT22;38563;54.258;12.574;2023-12-20T11:13:31;5.20;99.90
13598;DHT22;38563;54.258;12.574;2023-12-20T11:15:59;5.30;99.90
13598;DHT22;38563;54.258;12.574;2023-12-20T11:18:28;5.30;99.90
13598;DHT22;38563;54.258;12.574;2023-12-20T11:20:56;5.30;99.90
13598;DHT22;38563;54.258;12.574;2023-12-20T11:23:26;5.30;99.90
13598;DHT22;38563;54.258;12.574;2023-12-20T11:25:56;5.30;99.90
13598;DHT22;38563;54.258;12.574;2023-12-20T11:28:25;5.30;99.90
13598;DHT22;38563;54.258;12.574;2023-12-20T11:30:53;5.00;99.90
13598;DHT22;38563;54.258;12.574;2023-12-20T11:33:24;4.90;99.90
13598;DHT22;38563;54.258;12.574;2023-12-20T11:35:51;4.90;99.90
13598;DHT22;38563;54.258;12.574;2023-12-20T11:38:20;4.90;99.90
13598;DHT22;38563;54.258;12.574;2023-12-20T11:40:48;5.00;99.90
13598;DHT22;38563;54.258;12.574;2023-12-20T11:43:31;5.00;99.90
13598;DHT22;38563;54.258;12.574;2023-12-20T11:46:03;5.10;99.90
13598;DHT22;38563;54.258;12.574;2023-12-20T11:48:30;5.10;99.90
13598;DHT22;38563;54.258;12.574;2023-12-20T11:50:57;5.00;99.90
13598;DHT22;38563;54.258;12.574;2023-12-20T11:53:24;5.00;99.90
13598;DHT22;38563;54.258;12.574;2023-12-20T11:55:51;5.00;99.90
13598;DHT22;38563;54.258;12.574;2023-12-20T11:58:18;5.10;99.90
13598;DHT22;38563;54.258;12.574;2023-12-20T12:00:48;5.10;99.90
13598;DHT22;38563;54.258;12.574;2023-12-20T12:03:15;5.10;99.90
13598;DHT22;38563;54.258;12.574;2023-12-20T12:05:42;5.20;99.90
13598;DHT22;38563;54.258;12.574;2023-12-20T12:08:08;5.20;99.90
13598;DHT22;38563;54.258;12.574;2023-12-20T12:10:35;5.20;99.90
13598;DHT22;38563;54.258;12.574;2023-12-20T12:13:11;5.20;99.90
13598;DHT22;38563;54.258;12.574;2023-12-20T12:15:39;5.20;99.90
13598;DHT22;38563;54.258;12.574;2023-12-20T12:18:09;5.30;99.90
13598;DHT22;38563;54.258;12.574;2023-12-20T12:20:38;5.30;99.90
13598;DHT22;38563;54.258;12.574;2023-12-20T12:23:06;5.30;99.90
13598;DHT22;38563;54.258;12.574;2023-12-20T12:25:35;5.30;99.90
13598;DHT22;38563;54.258;12.574;2023-12-20T12:28:02;5.30;99.90
13598;DHT22;38563;54.258;12.574;2023-12-20T12:30:29;5.30;99.90
13598;DHT22;38563;54.258;12.574;2023-12-20T12:32:56;5.30;99.90
13598;DHT22;38563;54.258;12.574;2023-12-20T12:35:24;5.30;99.90
13598;DHT22;38563;54.258;12.574;2023-12-20T12:37:51;5.30;99.90
13598;DHT22;38563;54.258;12.574;2023-12-20T12:40:18;5.30;99.90
13598;DHT22;38563;54.258;12.574;2023-12-20T12:42:45;5.40;99.90
13598;DHT22;38563;54.258;12.574;2023-12-20T12:45:13;5.40;99.90
13598;DHT22;38563;54.258;12.574;2023-12-20T12:47:40;5.30;99.90
13598;DHT22;38563;54.258;12.574;2023-12-20T12:50:07;5.30;99.90
13598;DHT22;38563;54.258;12.574;2023-12-20T12:52:35;5.20;99.90
13598;DHT22;38563;54.258;12.574;2023-12-20T12:55:05;5.20;99.90
13598;DHT22;38563;54.258;12.574;2023-12-20T12:57:32;5.20;99.90
13598;DHT22;38563;54.258;12.574;2023-12-20T12:59:59;5.10;99.90
13598;DHT22;38563;54.258;12.574;2023-12-20T13:02:25;5.10;99.90
13598;DHT22;38563;54.258;12.574;2023-12-20T13:04:52;5.10;99.90
13598;DHT22;38563;54.258;12.574;2023-12-20T13:07:19;5.10;99.90
13598;DHT22;38563;54.258;12.574;2023-12-20T13:09:50;5.10;99.90
13598;DHT22;38563;54.258;12.574;2023-12-20T13:12:18;5.10;99.90
13598;DHT22;38563;54.258;12.574;2023-12-20T13:14:45;5.10;99.90
13598;DHT22;38563;54.258;12.574;2023-12-20T13:17:12;5.10;99.90
13598;DHT22;38563;54.258;12.574;2023-12-20T13:19:38;5.20;99.90
13598;DHT22;38563;54.258;12.574;2023-12-20T13:22:05;5.20;99.90
13598;DHT22;38563;54.258;12.574;2023-12-20T13:24:32;5.20;99.90
13598;DHT22;38563;54.258;12.574;2023-12-20T13:27:00;5.20;99.90
13598;DHT22;38563;54.258;12.574;2023-12-20T13:29:27;5.30;99.90
13598;DHT22;38563;54.258;12.574;2023-12-20T13:31:53;5.30;99.90
13598;DHT22;38563;54.258;12.574;2023-12-20T13:34:20;5.40;99.90
13598;DHT22;38563;54.258;12.574;2023-12-20T13:36:47;5.40;99.90
13598;DHT22;38563;54.258;12.574;2023-12-20T13:39:15;5.40;99.90
13598;DHT22;38563;54.258;12.574;2023-12-20T13:41:43;5.40;99.90
13598;DHT22;38563;54.258;12.574;2023-12-20T13:44:11;5.40;99.90
13598;DHT22;38563;54.258;12.574;2023-12-20T13:46:38;5.30;99.90
13598;DHT22;38563;54.258;12.574;2023-12-20T13:49:05;5.40;99.90
13598;DHT22;38563;54.258;12.574;2023-12-20T13:51:31;5.40;99.90
13598;DHT22;38563;54.258;12.574;2023-12-20T13:53:58;5.40;99.90
13598;DHT22;38563;54.258;12.574;2023-12-20T13:56:25;5.40;99.90
13598;DHT22;38563;54.258;12.574;2023-12-20T13:58:52;5.40;99.90
13598;DHT22;38563;54.258;12.574;2023-12-20T14:01:20;5.50;99.90
13598;DHT22;38563;54.258;12.574;2023-12-20T14:03:47;5.50;99.90
13598;DHT22;38563;54.258;12.574;2023-12-20T14:06:13;5.50;99.90
13598;DHT22;38563;54.258;12.574;2023-12-20T14:08:41;5.50;99.90
13598;DHT22;38563;54.258;12.574;2023-12-20T14:11:08;5.50;99.90
13598;DHT22;38563;54.258;12.574;2023-12-20T14:13:34;5.40;99.90
13598;DHT22;38563;54.258;12.574;2023-12-20T14:16:01;5.40;99.90
13598;DHT22;38563;54.258;12.574;2023-12-20T14:18:30;5.40;99.90
13598;DHT22;38563;54.258;12.574;2023-12-20T14:20:57;5.40;99.90
13598;DHT22;38563;54.258;12.574;2023-12-20T14:23:24;5.30;99.90
13598;DHT22;38563;54.258;12.574;2023-12-20T14:25:51;5.30;99.90
13598;DHT22;38563;54.258;12.574;2023-12-20T14:28:18;5.20;99.90
13598;DHT22;38563;54.258;12.574;2023-12-20T14:30:45;5.20;99.90
13598;DHT22;38563;54.258;12.574;2023-12-20T14:33:12;5.20;99.90
13598;DHT22;38563;54.258;12.574;2023-12-20T14:35:40;5.20;99.90
13598;DHT22;38563;54.258;12.574;2023-12-20T14:38:08;5.20;99.90
13598;DHT22;38563;54.258;12.574;2023-12-20T14:40:34;5.10;99.90
13598;DHT22;38563;54.258;12.574;2023-12-20T14:43:01;5.10;99.90
13598;DHT22;38563;54.258;12.574;2023-12-20T14:45:29;5.00;99.90
13598;DHT22;38563;54.258;12.574;2023-12-20T14:47:56;5.10;99.90
13598;DHT22;38563;54.258;12.574;2023-12-20T14:50:24;5.00;99.90
13598;DHT22;38563;54.258;12.574;2023-12-20T14:52:52;5.00;99.90
13598;DHT22;38563;54.258;12.574;2023-12-20T14:55:20;4.90;99.90
13598;DHT22;38563;54.258;12.574;2023-12-20T14:57:47;4.90;99.90
13598;DHT22;38563;54.258;12.574;2023-12-20T15:00:15;4.90;99.90
13598;DHT22;38563;54.258;12.574;2023-12-20T15:02:42;4.90;99.90
13598;DHT22;38563;54.258;12.574;2023-12-20T15:05:09;4.90;99.90
13598;DHT22;38563;54.258;12.574;2023-12-20T15:07:35;4.90;99.90
13598;DHT22;38563;54.258;12.574;2023-12-20T15:10:05;4.90;99.90
13598;DHT22;38563;54.258;12.574;2023-12-20T15:12:32;5.00;99.90
13598;DHT22;38563;54.258;12.574;2023-12-20T15:14:59;5.00;99.90
13598;DHT22;38563;54.258;12.574;2023-12-20T15:17:26;5.00;99.90
13598;DHT22;38563;54.258;12.574;2023-12-20T15:19:52;5.00;99.90
13598;DHT22;38563;54.258;12.574;2023-12-20T15:22:19;5.10;99.90
13598;DHT22;38563;54.258;12.574;2023-12-20T15:24:46;5.00;99.90
13598;DHT22;38563;54.258;12.574;2023-12-20T15:27:14;5.00;99.90
13598;DHT22;38563;54.258;12.574;2023-12-20T15:29:41;5.10;99.90
13598;DHT22;38563;54.258;12.574;2023-12-20T15:32:08;5.10;99.90
13598;DHT22;38563;54.258;12.574;2023-12-20T15:34:35;5.00;99.90
13598;DHT22;38563;54.258;12.574;2023-12-20T15:37:01;4.90;99.90
13598;DHT22;38563;54.258;12.574;2023-12-20T15:39:28;4.90;99.90
13598;DHT22;38563;54.258;12.574;2023-12-20T15:41:55;4.90;99.90
13598;DHT22;38563;54.258;12.574;2023-12-20T15:44:23;4.90;99.90
13598;DHT22;38563;54.258;12.574;2023-12-20T15:46:51;4.90;99.90
13598;DHT22;38563;54.258;12.574;2023-12-20T15:49:18;5.00;99.90
13598;DHT22;38563;54.258;12.574;2023-12-20T15:51:44;5.00;99.90
13598;DHT22;38563;54.258;12.574;2023-12-20T15:54:11;5.00;99.90
13598;DHT22;38563;54.258;12.574;2023-12-20T15:56:38;5.10;99.90
13598;DHT22;38563;54.258;12.574;2023-12-20T21:07:17;4.90;99.90
13598;DHT22;38563;54.258;12.574;2023-12-20T21:09:43;4.90;99.90
13598;DHT22;38563;54.258;12.574;2023-12-20T21:12:10;4.90;99.90
13598;DHT22;38563;54.258;12.574;2023-12-20T21:14:37;4.90;99.90
13598;DHT22;38563;54.258;12.574;2023-12-20T21:17:04;4.90;99.90
13598;DHT22;38563;54.258;12.574;2023-12-20T21:19:30;4.90;99.90
13598;DHT22;38563;54.258;12.574;2023-12-20T21:21:57;4.90;99.90
13598;DHT22;38563;54.258;12.574;2023-12-20T21:24:26;4.90;99.90
13598;DHT22;38563;54.258;12.574;2023-12-20T21:26:52;4.90;99.90
13598;DHT22;38563;54.258;12.574;2023-12-20T21:29:19;4.90;99.90
13598;DHT22;38563;54.258;12.574;2023-12-20T21:31:46;4.90;99.90
13598;DHT22;38563;54.258;12.574;2023-12-20T21:34:12;4.80;99.90
13598;DHT22;38563;54.258;12.574;2023-12-20T21:36:39;4.80;99.90
13598;DHT22;38563;54.258;12.574;2023-12-20T21:39:08;4.80;99.90
13598;DHT22;38563;54.258;12.574;2023-12-20T21:41:36;4.80;99.90
13598;DHT22;38563;54.258;12.574;2023-12-20T21:44:03;4.70;99.90
13598;DHT22;38563;54.258;12.574;2023-12-20T21:46:30;4.70;99.90
13598;DHT22;38563;54.258;12.574;2023-12-20T21:48:56;4.70;99.90
13598;DHT22;38563;54.258;12.574;2023-12-20T21:51:23;4.70;99.90
13598;DHT22;38563;54.258;12.574;2023-12-20T21:53:50;4.70;99.90
13598;DHT22;38563;54.258;12.574;2023-12-20T21:56:17;4.70;99.90
13598;DHT22;38563;54.258;12.574;2023-12-20T21:58:45;4.60;99.90
13598;DHT22;38563;54.258;12.574;2023-12-20T22:01:12;4.60;99.90
13598;DHT22;38563;54.258;12.574;2023-12-20T22:03:38;4.60;99.90
13598;DHT22;38563;54.258;12.574;2023-12-20T22:06:05;4.60;99.90
13598;DHT22;38563;54.258;12.574;2023-12-20T22:08:32;4.60;99.90
13598;DHT22;38563;54.258;12.574;2023-12-20T22:10:59;4.60;99.90
13598;DHT22;38563;54.258;12.574;2023-12-20T22:13:26;4.60;99.90
13598;DHT22;38563;54.258;12.574;2023-12-20T22:15:57;4.60;99.90
13598;DHT22;38563;54.258;12.574;2023-12-20T22:18:24;4.60;99.90
13598;DHT22;38563;54.258;12.574;2023-12-20T22:20:50;4.50;99.90
13598;DHT22;38563;54.258;12.574;2023-12-20T22:23:17;4.50;99.90
13598;DHT22;38563;54.258;12.574;2023-12-20T22:25:44;4.50;99.90
13598;DHT22;38563;54.258;12.574;2023-12-20T22:28:10;4.50;99.90
13598;DHT22;38563;54.258;12.574;2023-12-20T22:30:37;4.50;99.90
13598;DHT22;38563;54.258;12.574;2023-12-20T22:33:05;4.40;99.90
13598;DHT22;38563;54.258;12.574;2023-12-20T22:35:32;4.40;99.90
13598;DHT22;38563;54.258;12.574;2023-12-20T22:37:59;4.40;99.90
13598;DHT22;38563;54.258;12.574;2023-12-20T22:40:26;4.30;99.90
13598;DHT22;38563;54.258;12.574;2023-12-20T22:42:52;4.30;99.90
13598;DHT22;38563;54.258;12.574;2023-12-20T22:45:20;4.30;99.90
13598;DHT22;38563;54.258;12.574;2023-12-20T22:47:46;4.30;99.90
13598;DHT22;38563;54.258;12.574;2023-12-20T22:50:13;4.20;99.90
13598;DHT22;38563;54.258;12.574;2023-12-20T22:52:40;4.20;99.90
13598;DHT22;38563;54.258;12.574;2023-12-20T22:55:07;4.20;99.90
13598;DHT22;38563;54.258;12.574;2023-12-20T22:57:34;4.20;99.90
13598;DHT22;38563;54.258;12.574;2023-12-20T23:00:01;4.20;99.90
13598;DHT22;38563;54.258;12.574;2023-12-20T23:02:29;4.20;99.90
13598;DHT22;38563;54.258;12.574;2023-12-20T23:04:55;4.10;99.90